sensor_id;sensor_type;location;lat;lon;timestamp;pressure;altitude;pressure_sealevel;temperature;humidity
19108;BME280;9686;48.832;9.126;2022-09-09T00:00:18;97791.25;;;17.27;100.00
19108;BME280;9686;48.832;9.126;2022-09-09T00:03:12;97791.50;;;17.21;100.00
19108;BME280;9686;48.832;9.126;2022-09-09T00:08:25;97783.28;;;17.07;100.00
19108;BME280;9686;48.832;9.126;2022-09-09T00:10:59;97777.22;;;17.05;100.00
19108;BME280;9686;48.832;9.126;2022-09-09T00:13:37;97781.50;;;17.08;100.00
19108;BME280;9686;48.832;9.126;2022-09-09T00:16:09;97783.16;;;17.10;100.00
19108;BME280;9686;48.832;9.126;2022-09-09T00:21:21;97777.59;;;17.18;100.00
19108;BME280;9686;48.832;9.126;2022-09-09T00:23:50;97776.50;;;17.23;100.00
19108;BME280;9686;48.832;9.126;2022-09-09T00:28:50;97766.88;;;17.22;100.00
19108;BME280;9686;48.832;9.126;2022-09-09T00:31:23;97770.72;;;17.36;100.00
19108;BME280;9686;48.832;9.126;2022-09-09T00:33:50;97776.91;;;17.35;100.00
19108;BME280;9686;48.832;9.126;2022-09-09T00:36:19;97767.34;;;17.32;100.00
19108;BME280;9686;48.832;9.126;2022-09-09T00:38:52;97768.94;;;17.36;100.00
19108;BME280;9686;48.832;9.126;2022-09-09T00:41:44;97770.13;;;17.29;100.00
19108;BME280;9686;48.832;9.126;2022-09-09T00:44:32;97774.22;;;17.36;100.00
19108;BME280;9686;48.832;9.126;2022-09-09T00:47:12;97773.03;;;17.43;100.00
19108;BME280;9686;48.832;9.126;2022-09-09T00:49:47;97775.72;;;17.42;100.00
19108;BME280;9686;48.832;9.126;2022-09-09T00:55:21;97772.19;;;17.43;100.00
19108;BME280;9686;48.832;9.126;2022-09-09T00:57:52;97776.44;;;17.47;100.00
19108;BME280;9686;48.832;9.126;2022-09-09T01:00:21;97771.69;;;17.55;100.00
19108;BME280;9686;48.832;9.126;2022-09-09T01:03:21;97772.81;;;17.49;100.00
19108;BME280;9686;48.832;9.126;2022-09-09T01:06:41;97768.06;;;17.57;100.00
19108;BME280;9686;48.832;9.126;2022-09-09T01:12:24;97759.56;;;17.73;100.00
19108;BME280;9686;48.832;9.126;2022-09-09T01:14:56;97756.81;;;17.76;100.00
19108;BME280;9686;48.832;9.126;2022-09-09T01:17:31;97761.88;;;17.80;100.00
19108;BME280;9686;48.832;9.126;2022-09-09T01:20:08;97760.03;;;17.82;100.00
19108;BME280;9686;48.832;9.126;2022-09-09T01:28:05;97772.69;;;17.95;100.00
19108;BME280;9686;48.832;9.126;2022-09-09T01:30:37;97776.19;;;17.95;100.00
19108;BME280;9686;48.832;9.126;2022-09-09T01:33:03;97787.06;;;17.87;100.00
19108;BME280;9686;48.832;9.126;2022-09-09T01:38:04;97787.06;;;17.87;100.00
19108;BME280;9686;48.832;9.126;2022-09-09T01:40:29;97787.72;;;17.93;100.00
19108;BME280;9686;48.832;9.126;2022-09-09T01:42:55;97790.50;;;17.90;100.00
19108;BME280;9686;48.832;9.126;2022-09-09T01:45:22;97787.56;;;17.97;100.00
19108;BME280;9686;48.832;9.126;2022-09-09T01:47:48;97785.78;;;17.98;100.00
19108;BME280;9686;48.832;9.126;2022-09-09T01:50:16;97786.13;;;17.88;100.00
19108;BME280;9686;48.832;9.126;2022-09-09T01:52:44;97786.41;;;17.82;100.00
19108;BME280;9686;48.832;9.126;2022-09-09T01:55:11;97783.16;;;17.76;100.00
19108;BME280;9686;48.832;9.126;2022-09-09T01:57:46;97788.31;;;17.79;100.00
19108;BME280;9686;48.832;9.126;2022-09-09T02:00:15;97782.97;;;17.80;100.00
19108;BME280;9686;48.832;9.126;2022-09-09T02:03:24;97781.25;;;17.79;100.00
19108;BME280;9686;48.832;9.126;2022-09-09T02:08:31;97768.06;;;17.79;100.00
19108;BME280;9686;48.832;9.126;2022-09-09T02:11:02;97774.34;;;17.77;100.00
19108;BME280;9686;48.832;9.126;2022-09-09T02:13:32;97785.53;;;17.82;100.00
19108;BME280;9686;48.832;9.126;2022-09-09T02:16:42;97794.78;;;17.92;100.00
19108;BME280;9686;48.832;9.126;2022-09-09T02:19:20;97784.09;;;17.95;100.00
19108;BME280;9686;48.832;9.126;2022-09-09T02:21:52;97788.47;;;17.96;100.00
19108;BME280;9686;48.832;9.126;2022-09-09T02:24:18;97784.66;;;18.03;100.00
19108;BME280;9686;48.832;9.126;2022-09-09T02:26:46;97782.56;;;17.90;100.00
19108;BME280;9686;48.832;9.126;2022-09-09T02:29:22;97788.66;;;17.92;100.00
19108;BME280;9686;48.832;9.126;2022-09-09T02:31:51;97784.91;;;17.97;100.00
19108;BME280;9686;48.832;9.126;2022-09-09T02:34:21;97782.38;;;17.94;100.00
19108;BME280;9686;48.832;9.126;2022-09-09T02:36:49;97788.56;;;17.93;100.00
19108;BME280;9686;48.832;9.126;2022-09-09T02:39:16;97786.56;;;18.00;100.00
19108;BME280;9686;48.832;9.126;2022-09-09T02:41:42;97786.44;;;18.03;100.00
19108;BME280;9686;48.832;9.126;2022-09-09T02:44:15;97781.53;;;17.94;100.00
19108;BME280;9686;48.832;9.126;2022-09-09T02:52:15;97770.66;;;17.81;100.00
19108;BME280;9686;48.832;9.126;2022-09-09T02:54:43;97771.78;;;17.75;100.00
19108;BME280;9686;48.832;9.126;2022-09-09T02:57:17;97765.19;;;17.64;100.00
19108;BME280;9686;48.832;9.126;2022-09-09T02:59:44;97756.88;;;17.52;100.00
19108;BME280;9686;48.832;9.126;2022-09-09T03:02:10;97757.00;;;17.49;100.00
19108;BME280;9686;48.832;9.126;2022-09-09T03:04:37;97751.34;;;17.58;100.00
19108;BME280;9686;48.832;9.126;2022-09-09T03:07:02;97762.88;;;17.56;100.00
19108;BME280;9686;48.832;9.126;2022-09-09T03:09:29;97754.38;;;17.49;100.00
19108;BME280;9686;48.832;9.126;2022-09-09T03:11:54;97746.94;;;17.37;100.00
19108;BME280;9686;48.832;9.126;2022-09-09T03:14:20;97752.22;;;17.15;100.00
19108;BME280;9686;48.832;9.126;2022-09-09T03:16:49;97749.88;;;17.08;100.00
19108;BME280;9686;48.832;9.126;2022-09-09T03:19:15;97756.69;;;16.91;100.00
19108;BME280;9686;48.832;9.126;2022-09-09T03:21:40;97760.44;;;16.84;100.00
19108;BME280;9686;48.832;9.126;2022-09-09T03:24:06;97755.59;;;16.97;100.00
19108;BME280;9686;48.832;9.126;2022-09-09T03:26:31;97762.25;;;17.06;100.00
19108;BME280;9686;48.832;9.126;2022-09-09T03:28:57;97765.16;;;17.00;100.00
19108;BME280;9686;48.832;9.126;2022-09-09T03:31:22;97764.69;;;16.88;100.00
19108;BME280;9686;48.832;9.126;2022-09-09T03:33:47;97759.78;;;16.79;100.00
19108;BME280;9686;48.832;9.126;2022-09-09T03:36:14;97764.97;;;16.81;100.00
19108;BME280;9686;48.832;9.126;2022-09-09T03:38:40;97765.09;;;16.78;100.00
19108;BME280;9686;48.832;9.126;2022-09-09T03:41:05;97772.88;;;16.81;100.00
19108;BME280;9686;48.832;9.126;2022-09-09T03:43:30;97778.56;;;16.70;100.00
19108;BME280;9686;48.832;9.126;2022-09-09T03:45:56;97774.84;;;16.76;100.00
19108;BME280;9686;48.832;9.126;2022-09-09T03:48:25;97777.59;;;16.73;100.00
19108;BME280;9686;48.832;9.126;2022-09-09T03:50:53;97775.56;;;16.79;100.00
19108;BME280;9686;48.832;9.126;2022-09-09T03:53:21;97772.69;;;16.85;100.00
19108;BME280;9686;48.832;9.126;2022-09-09T03:55:48;97769.72;;;16.94;100.00
19108;BME280;9686;48.832;9.126;2022-09-09T03:58:15;97767.66;;;17.03;100.00
19108;BME280;9686;48.832;9.126;2022-09-09T04:00:41;97765.81;;;17.05;100.00
19108;BME280;9686;48.832;9.126;2022-09-09T04:03:10;97766.66;;;17.05;100.00
19108;BME280;9686;48.832;9.126;2022-09-09T04:05:36;97762.00;;;17.12;100.00
19108;BME280;9686;48.832;9.126;2022-09-09T04:08:08;97761.88;;;17.15;100.00
19108;BME280;9686;48.832;9.126;2022-09-09T04:10:34;97760.03;;;17.17;100.00
19108;BME280;9686;48.832;9.126;2022-09-09T04:13:03;97764.53;;;17.15;100.00
19108;BME280;9686;48.832;9.126;2022-09-09T04:15:29;97758.84;;;17.25;100.00
19108;BME280;9686;48.832;9.126;2022-09-09T04:17:54;97768.47;;;17.26;100.00
19108;BME280;9686;48.832;9.126;2022-09-09T04:20:20;97773.72;;;17.26;100.00
19108;BME280;9686;48.832;9.126;2022-09-09T04:22:47;97770.91;;;17.31;100.00
19108;BME280;9686;48.832;9.126;2022-09-09T04:25:12;97782.97;;;17.37;100.00
19108;BME280;9686;48.832;9.126;2022-09-09T04:27:37;97786.28;;;17.42;100.00
19108;BME280;9686;48.832;9.126;2022-09-09T04:30:03;97777.34;;;17.46;100.00
19108;BME280;9686;48.832;9.126;2022-09-09T04:32:28;97773.00;;;17.45;100.00
19108;BME280;9686;48.832;9.126;2022-09-09T04:34:54;97779.88;;;17.49;100.00
19108;BME280;9686;48.832;9.126;2022-09-09T04:37:19;97778.69;;;17.56;100.00
19108;BME280;9686;48.832;9.126;2022-09-09T04:39:44;97783.50;;;17.67;100.00
19108;BME280;9686;48.832;9.126;2022-09-09T04:42:10;97785.41;;;17.63;100.00
19108;BME280;9686;48.832;9.126;2022-09-09T04:44:37;97797.00;;;17.59;100.00
19108;BME280;9686;48.832;9.126;2022-09-09T04:47:02;97781.31;;;17.56;100.00
19108;BME280;9686;48.832;9.126;2022-09-09T04:49:28;97794.88;;;17.47;100.00
19108;BME280;9686;48.832;9.126;2022-09-09T04:51:53;97792.00;;;17.53;100.00
19108;BME280;9686;48.832;9.126;2022-09-09T04:54:18;97792.78;;;17.55;100.00
19108;BME280;9686;48.832;9.126;2022-09-09T04:56:44;97783.94;;;17.56;100.00
19108;BME280;9686;48.832;9.126;2022-09-09T04:59:09;97785.34;;;17.65;100.00
19108;BME280;9686;48.832;9.126;2022-09-09T05:01:35;97780.25;;;17.60;100.00
19108;BME280;9686;48.832;9.126;2022-09-09T05:04:01;97782.53;;;17.69;100.00
19108;BME280;9686;48.832;9.126;2022-09-09T05:06:28;97795.44;;;17.77;100.00
19108;BME280;9686;48.832;9.126;2022-09-09T05:08:54;97806.31;;;17.90;100.00
19108;BME280;9686;48.832;9.126;2022-09-09T05:11:27;97802.44;;;17.98;100.00
19108;BME280;9686;48.832;9.126;2022-09-09T05:13:53;97806.94;;;17.96;100.00
19108;BME280;9686;48.832;9.126;2022-09-09T05:16:20;97808.31;;;18.05;100.00
19108;BME280;9686;48.832;9.126;2022-09-09T05:18:46;97812.53;;;18.09;100.00
19108;BME280;9686;48.832;9.126;2022-09-09T05:21:13;97802.63;;;18.14;100.00
19108;BME280;9686;48.832;9.126;2022-09-09T05:23:39;97801.97;;;18.09;100.00
19108;BME280;9686;48.832;9.126;2022-09-09T05:26:05;97807.06;;;18.13;100.00
19108;BME280;9686;48.832;9.126;2022-09-09T05:28:33;97809.81;;;18.10;100.00
19108;BME280;9686;48.832;9.126;2022-09-09T05:31:00;97807.72;;;18.18;100.00
19108;BME280;9686;48.832;9.126;2022-09-09T05:33:29;97807.34;;;18.28;100.00
19108;BME280;9686;48.832;9.126;2022-09-09T05:35:59;97801.44;;;18.21;100.00
19108;BME280;9686;48.832;9.126;2022-09-09T05:38:25;97808.06;;;18.31;100.00
19108;BME280;9686;48.832;9.126;2022-09-09T05:40:51;97812.78;;;18.43;100.00
19108;BME280;9686;48.832;9.126;2022-09-09T05:43:18;97812.72;;;18.45;100.00
19108;BME280;9686;48.832;9.126;2022-09-09T05:45:48;97812.53;;;18.49;100.00
19108;BME280;9686;48.832;9.126;2022-09-09T05:48:16;97811.69;;;18.49;100.00
19108;BME280;9686;48.832;9.126;2022-09-09T05:50:42;97820.47;;;18.49;100.00
19108;BME280;9686;48.832;9.126;2022-09-09T05:53:08;97815.19;;;18.49;100.00
19108;BME280;9686;48.832;9.126;2022-09-09T05:55:34;97811.41;;;18.55;100.00
19108;BME280;9686;48.832;9.126;2022-09-09T05:57:59;97814.69;;;18.60;100.00
19108;BME280;9686;48.832;9.126;2022-09-09T06:00:26;97820.97;;;18.58;100.00
19108;BME280;9686;48.832;9.126;2022-09-09T06:02:52;97821.09;;;18.55;100.00
19108;BME280;9686;48.832;9.126;2022-09-09T06:05:18;97820.97;;;18.58;100.00
19108;BME280;9686;48.832;9.126;2022-09-09T06:07:44;97820.91;;;18.59;100.00
19108;BME280;9686;48.832;9.126;2022-09-09T06:10:10;97821.97;;;18.75;100.00
19108;BME280;9686;48.832;9.126;2022-09-09T06:12:36;97821.03;;;18.76;100.00
19108;BME280;9686;48.832;9.126;2022-09-09T06:15:01;97827.25;;;18.75;100.00
19108;BME280;9686;48.832;9.126;2022-09-09T06:17:27;97821.41;;;18.88;100.00
19108;BME280;9686;48.832;9.126;2022-09-09T06:19:52;97823.97;;;18.89;100.00
19108;BME280;9686;48.832;9.126;2022-09-09T06:22:21;97822.69;;;18.98;100.00
19108;BME280;9686;48.832;9.126;2022-09-09T06:24:47;97827.09;;;18.97;100.00
19108;BME280;9686;48.832;9.126;2022-09-09T06:27:12;97831.13;;;19.06;100.00
19108;BME280;9686;48.832;9.126;2022-09-09T06:29:38;97831.03;;;18.89;100.00
19108;BME280;9686;48.832;9.126;2022-09-09T06:32:04;97837.09;;;18.91;100.00
19108;BME280;9686;48.832;9.126;2022-09-09T06:34:29;97839.13;;;19.04;100.00
19108;BME280;9686;48.832;9.126;2022-09-09T06:36:55;97834.13;;;19.17;100.00
19108;BME280;9686;48.832;9.126;2022-09-09T06:39:22;97839.41;;;19.17;100.00
19108;BME280;9686;48.832;9.126;2022-09-09T06:41:48;97832.63;;;19.12;100.00
19108;BME280;9686;48.832;9.126;2022-09-09T06:44:13;97838.56;;;19.17;100.00
19108;BME280;9686;48.832;9.126;2022-09-09T06:46:40;97836.75;;;19.17;100.00
19108;BME280;9686;48.832;9.126;2022-09-09T06:49:05;97838.06;;;19.08;100.00
19108;BME280;9686;48.832;9.126;2022-09-09T06:51:34;97839.28;;;19.01;100.00
19108;BME280;9686;48.832;9.126;2022-09-09T06:54:00;97836.28;;;19.09;100.00
19108;BME280;9686;48.832;9.126;2022-09-09T06:56:35;97847.13;;;19.22;100.00
19108;BME280;9686;48.832;9.126;2022-09-09T06:59:03;97842.97;;;19.16;100.00
19108;BME280;9686;48.832;9.126;2022-09-09T07:01:34;97834.50;;;19.28;100.00
19108;BME280;9686;48.832;9.126;2022-09-09T07:04:00;97833.34;;;19.34;100.00
19108;BME280;9686;48.832;9.126;2022-09-09T07:06:31;97833.63;;;19.28;100.00
19108;BME280;9686;48.832;9.126;2022-09-09T07:08:59;97841.50;;;19.29;100.00
19108;BME280;9686;48.832;9.126;2022-09-09T07:11:27;97834.81;;;19.39;100.00
19108;BME280;9686;48.832;9.126;2022-09-09T07:13:53;97832.03;;;19.42;100.00
19108;BME280;9686;48.832;9.126;2022-09-09T07:16:20;97834.44;;;19.47;100.00
19108;BME280;9686;48.832;9.126;2022-09-09T07:18:46;97844.56;;;19.58;100.00
19108;BME280;9686;48.832;9.126;2022-09-09T07:21:13;97839.44;;;19.55;100.00
19108;BME280;9686;48.832;9.126;2022-09-09T07:23:39;97847.84;;;19.63;100.00
19108;BME280;9686;48.832;9.126;2022-09-09T07:26:16;97844.19;;;19.65;100.00
19108;BME280;9686;48.832;9.126;2022-09-09T07:28:41;97842.31;;;19.67;100.00
19108;BME280;9686;48.832;9.126;2022-09-09T07:31:13;97837.75;;;19.71;100.00
19108;BME280;9686;48.832;9.126;2022-09-09T07:33:39;97833.22;;;19.73;100.00
19108;BME280;9686;48.832;9.126;2022-09-09T07:36:10;97836.47;;;19.80;100.00
19108;BME280;9686;48.832;9.126;2022-09-09T07:38:39;97836.63;;;19.94;100.00
19108;BME280;9686;48.832;9.126;2022-09-09T07:41:08;97840.88;;;19.96;100.00
19108;BME280;9686;48.832;9.126;2022-09-09T07:43:45;97841.53;;;20.19;100.00
19108;BME280;9686;48.832;9.126;2022-09-09T07:46:12;97844.63;;;20.27;100.00
19108;BME280;9686;48.832;9.126;2022-09-09T07:48:38;97845.81;;;20.21;100.00
19108;BME280;9686;48.832;9.126;2022-09-09T07:51:16;97842.53;;;20.16;100.00
19108;BME280;9686;48.832;9.126;2022-09-09T07:53:43;97840.28;;;20.26;100.00
19108;BME280;9686;48.832;9.126;2022-09-09T07:56:11;97844.75;;;20.43;100.00
19108;BME280;9686;48.832;9.126;2022-09-09T07:58:38;97844.09;;;20.55;100.00
19108;BME280;9686;48.832;9.126;2022-09-09T08:01:12;97837.94;;;20.72;100.00
19108;BME280;9686;48.832;9.126;2022-09-09T08:03:38;97823.66;;;20.74;100.00
19108;BME280;9686;48.832;9.126;2022-09-09T08:06:06;97828.19;;;20.72;100.00
19108;BME280;9686;48.832;9.126;2022-09-09T08:08:32;97843.69;;;20.80;100.00
19108;BME280;9686;48.832;9.126;2022-09-09T08:11:07;97834.22;;;20.91;100.00
19108;BME280;9686;48.832;9.126;2022-09-09T08:13:34;97834.66;;;21.00;99.08
19108;BME280;9686;48.832;9.126;2022-09-09T08:16:08;97839.06;;;21.16;98.74
19108;BME280;9686;48.832;9.126;2022-09-09T08:18:34;97845.44;;;21.30;93.66
19108;BME280;9686;48.832;9.126;2022-09-09T08:21:11;97847.41;;;21.42;95.71
19108;BME280;9686;48.832;9.126;2022-09-09T08:23:41;97857.00;;;21.60;89.36
19108;BME280;9686;48.832;9.126;2022-09-09T08:26:18;97858.94;;;21.57;89.14
19108;BME280;9686;48.832;9.126;2022-09-09T08:28:48;97866.69;;;21.61;90.27
19108;BME280;9686;48.832;9.126;2022-09-09T08:31:18;97868.72;;;21.72;89.13
19108;BME280;9686;48.832;9.126;2022-09-09T08:33:44;97869.91;;;21.66;84.62
19108;BME280;9686;48.832;9.126;2022-09-09T08:36:20;97853.31;;;21.63;88.04
19108;BME280;9686;48.832;9.126;2022-09-09T08:38:51;97842.53;;;21.50;90.10
19108;BME280;9686;48.832;9.126;2022-09-09T08:46:54;97840.56;;;21.69;84.49
19108;BME280;9686;48.832;9.126;2022-09-09T08:53:04;97839.47;;;22.03;78.36
19108;BME280;9686;48.832;9.126;2022-09-09T08:55:47;97846.00;;;22.13;78.17
19108;BME280;9686;48.832;9.126;2022-09-09T08:58:26;97842.13;;;22.19;78.73
19108;BME280;9686;48.832;9.126;2022-09-09T09:01:23;97839.09;;;22.25;65.82
19108;BME280;9686;48.832;9.126;2022-09-09T09:12:23;97859.03;;;22.32;71.12
19108;BME280;9686;48.832;9.126;2022-09-09T09:14:49;97856.28;;;22.34;70.71
19108;BME280;9686;48.832;9.126;2022-09-09T09:17:19;97854.56;;;22.19;72.76
19108;BME280;9686;48.832;9.126;2022-09-09T09:19:46;97852.94;;;22.16;73.59
19108;BME280;9686;48.832;9.126;2022-09-09T09:24:55;97857.06;;;21.90;71.46
19108;BME280;9686;48.832;9.126;2022-09-09T09:27:46;97858.06;;;22.03;66.92
19108;BME280;9686;48.832;9.126;2022-09-09T09:30:17;97854.81;;;21.82;71.04
19108;BME280;9686;48.832;9.126;2022-09-09T09:32:53;97861.06;;;21.97;72.05
19108;BME280;9686;48.832;9.126;2022-09-09T09:35:19;97861.34;;;21.93;75.03
19108;BME280;9686;48.832;9.126;2022-09-09T09:37:44;97854.22;;;21.93;76.05
19108;BME280;9686;48.832;9.126;2022-09-09T09:40:16;97857.63;;;22.11;78.39
19108;BME280;9686;48.832;9.126;2022-09-09T09:42:57;97862.34;;;22.22;82.11
19108;BME280;9686;48.832;9.126;2022-09-09T09:45:42;97846.75;;;22.45;81.57
19108;BME280;9686;48.832;9.126;2022-09-09T09:48:12;97842.72;;;22.24;71.60
19108;BME280;9686;48.832;9.126;2022-09-09T09:50:54;97842.44;;;22.29;67.56
19108;BME280;9686;48.832;9.126;2022-09-09T09:53:31;97838.47;;;22.36;62.21
19108;BME280;9686;48.832;9.126;2022-09-09T09:55:59;97841.00;;;22.37;65.41
19108;BME280;9686;48.832;9.126;2022-09-09T09:58:29;97838.28;;;22.83;61.03
19108;BME280;9686;48.832;9.126;2022-09-09T10:00:59;97830.78;;;23.04;59.16
19108;BME280;9686;48.832;9.126;2022-09-09T10:03:30;97822.13;;;23.15;56.68
19108;BME280;9686;48.832;9.126;2022-09-09T10:05:56;97833.59;;;23.15;55.77
19108;BME280;9686;48.832;9.126;2022-09-09T10:08:26;97825.16;;;23.08;54.33
19108;BME280;9686;48.832;9.126;2022-09-09T10:13:54;97815.84;;;23.30;55.76
19108;BME280;9686;48.832;9.126;2022-09-09T10:19:28;97813.94;;;23.32;56.22
19108;BME280;9686;48.832;9.126;2022-09-09T10:35:04;97804.00;;;23.89;54.84
19108;BME280;9686;48.832;9.126;2022-09-09T10:37:46;97804.78;;;24.04;54.47
19108;BME280;9686;48.832;9.126;2022-09-09T10:40:36;97808.34;;;23.90;54.44
19108;BME280;9686;48.832;9.126;2022-09-09T10:46:21;97797.97;;;24.00;54.15
19108;BME280;9686;48.832;9.126;2022-09-09T10:49:12;97795.84;;;24.18;52.38
19108;BME280;9686;48.832;9.126;2022-09-09T10:57:31;97793.28;;;24.04;51.35
19108;BME280;9686;48.832;9.126;2022-09-09T11:00:06;97800.69;;;23.86;53.34
19108;BME280;9686;48.832;9.126;2022-09-09T11:02:33;97806.88;;;23.86;58.26
19108;BME280;9686;48.832;9.126;2022-09-09T11:05:03;97812.47;;;23.69;58.62
19108;BME280;9686;48.832;9.126;2022-09-09T11:07:49;97832.00;;;23.27;59.26
19108;BME280;9686;48.832;9.126;2022-09-09T11:10:21;97840.94;;;22.83;78.06
19108;BME280;9686;48.832;9.126;2022-09-09T11:12:51;97847.47;;;22.33;100.00
19108;BME280;9686;48.832;9.126;2022-09-09T11:15:31;97851.16;;;21.53;100.00
19108;BME280;9686;48.832;9.126;2022-09-09T11:18:01;97850.50;;;20.51;100.00
19108;BME280;9686;48.832;9.126;2022-09-09T11:20:42;97840.06;;;19.60;100.00
19108;BME280;9686;48.832;9.126;2022-09-09T11:23:13;97847.78;;;19.27;100.00
19108;BME280;9686;48.832;9.126;2022-09-09T11:25:51;97856.50;;;19.29;100.00
19108;BME280;9686;48.832;9.126;2022-09-09T11:34:04;97876.63;;;19.13;100.00
19108;BME280;9686;48.832;9.126;2022-09-09T11:43:29;97865.44;;;19.26;100.00
19108;BME280;9686;48.832;9.126;2022-09-09T11:46:02;97866.13;;;19.30;100.00
19108;BME280;9686;48.832;9.126;2022-09-09T11:48:32;97866.69;;;19.36;100.00
19108;BME280;9686;48.832;9.126;2022-09-09T11:51:08;97863.91;;;19.39;100.00
19108;BME280;9686;48.832;9.126;2022-09-09T11:53:35;97862.75;;;19.45;100.00
19108;BME280;9686;48.832;9.126;2022-09-09T11:56:09;97849.91;;;19.37;100.00
19108;BME280;9686;48.832;9.126;2022-09-09T11:58:41;97840.41;;;19.52;100.00
19108;BME280;9686;48.832;9.126;2022-09-09T12:01:37;97837.97;;;19.66;100.00
19108;BME280;9686;48.832;9.126;2022-09-09T12:09:23;97831.09;;;20.16;100.00
19108;BME280;9686;48.832;9.126;2022-09-09T12:11:50;97829.31;;;20.16;100.00
19108;BME280;9686;48.832;9.126;2022-09-09T12:14:37;97824.66;;;20.56;100.00
19108;BME280;9686;48.832;9.126;2022-09-09T12:19:40;97825.44;;;21.07;100.00
19108;BME280;9686;48.832;9.126;2022-09-09T12:22:39;97820.44;;;21.34;100.00
19108;BME280;9686;48.832;9.126;2022-09-09T12:28:03;97819.06;;;21.58;92.71
19108;BME280;9686;48.832;9.126;2022-09-09T12:30:37;97817.13;;;21.46;93.49
19108;BME280;9686;48.832;9.126;2022-09-09T12:33:16;97816.31;;;21.60;83.17
19108;BME280;9686;48.832;9.126;2022-09-09T12:35:43;97809.88;;;21.79;87.02
19108;BME280;9686;48.832;9.126;2022-09-09T12:38:21;97824.59;;;21.85;77.54
19108;BME280;9686;48.832;9.126;2022-09-09T12:40:58;97820.03;;;22.03;75.96
19108;BME280;9686;48.832;9.126;2022-09-09T12:43:25;97828.19;;;22.15;76.46
19108;BME280;9686;48.832;9.126;2022-09-09T12:45:54;97813.09;;;22.16;77.52
19108;BME280;9686;48.832;9.126;2022-09-09T12:48:28;97802.91;;;22.08;75.17
19108;BME280;9686;48.832;9.126;2022-09-09T12:50:53;97809.59;;;22.00;76.51
19108;BME280;9686;48.832;9.126;2022-09-09T12:53:33;97802.28;;;21.89;75.73
19108;BME280;9686;48.832;9.126;2022-09-09T12:56:06;97799.91;;;22.14;69.16
19108;BME280;9686;48.832;9.126;2022-09-09T12:58:33;97794.69;;;22.13;68.41
19108;BME280;9686;48.832;9.126;2022-09-09T13:01:00;97791.88;;;22.16;71.20
19108;BME280;9686;48.832;9.126;2022-09-09T13:03:28;97802.97;;;22.37;69.54
19108;BME280;9686;48.832;9.126;2022-09-09T13:05:58;97793.44;;;22.49;61.29
19108;BME280;9686;48.832;9.126;2022-09-09T13:08:25;97793.63;;;22.45;64.10
19108;BME280;9686;48.832;9.126;2022-09-09T13:11:00;97786.50;;;22.60;63.68
19108;BME280;9686;48.832;9.126;2022-09-09T13:13:31;97784.72;;;22.89;63.93
19108;BME280;9686;48.832;9.126;2022-09-09T13:16:00;97779.66;;;23.13;64.37
19108;BME280;9686;48.832;9.126;2022-09-09T13:18:32;97774.59;;;23.37;61.05
19108;BME280;9686;48.832;9.126;2022-09-09T13:20:59;97775.28;;;23.26;55.05
19108;BME280;9686;48.832;9.126;2022-09-09T13:23:29;97768.91;;;23.29;56.27
19108;BME280;9686;48.832;9.126;2022-09-09T13:25:58;97779.25;;;23.33;55.62
19108;BME280;9686;48.832;9.126;2022-09-09T13:28:26;97778.75;;;23.41;53.67
19108;BME280;9686;48.832;9.126;2022-09-09T13:31:02;97778.53;;;23.58;54.64
19108;BME280;9686;48.832;9.126;2022-09-09T13:33:36;97773.72;;;23.78;55.16
19108;BME280;9686;48.832;9.126;2022-09-09T13:36:05;97772.53;;;23.69;55.68
19108;BME280;9686;48.832;9.126;2022-09-09T13:38:35;97771.06;;;23.78;53.53
19108;BME280;9686;48.832;9.126;2022-09-09T13:41:05;97778.09;;;23.79;54.95
19108;BME280;9686;48.832;9.126;2022-09-09T13:43:37;97761.13;;;23.67;54.59
19108;BME280;9686;48.832;9.126;2022-09-09T13:46:25;97757.22;;;23.73;54.87
19108;BME280;9686;48.832;9.126;2022-09-09T13:51:40;97755.50;;;23.72;54.49
19108;BME280;9686;48.832;9.126;2022-09-09T13:54:09;97746.09;;;23.66;53.20
19108;BME280;9686;48.832;9.126;2022-09-09T13:56:37;97757.59;;;23.66;51.18
19108;BME280;9686;48.832;9.126;2022-09-09T13:59:04;97753.38;;;23.77;50.89
19108;BME280;9686;48.832;9.126;2022-09-09T14:01:30;97751.25;;;23.82;46.81
19108;BME280;9686;48.832;9.126;2022-09-09T14:03:56;97759.31;;;23.94;46.89
19108;BME280;9686;48.832;9.126;2022-09-09T14:06:21;97757.97;;;23.87;47.88
19108;BME280;9686;48.832;9.126;2022-09-09T14:08:49;97754.16;;;23.91;48.13
19108;BME280;9686;48.832;9.126;2022-09-09T14:11:15;97747.69;;;23.95;47.17
19108;BME280;9686;48.832;9.126;2022-09-09T14:13:41;97754.84;;;24.08;46.32
19108;BME280;9686;48.832;9.126;2022-09-09T14:16:06;97759.09;;;24.10;46.71
19108;BME280;9686;48.832;9.126;2022-09-09T14:18:32;97755.06;;;24.17;47.35
19108;BME280;9686;48.832;9.126;2022-09-09T14:20:59;97750.47;;;24.19;47.37
19108;BME280;9686;48.832;9.126;2022-09-09T14:23:24;97754.41;;;24.01;45.83
19108;BME280;9686;48.832;9.126;2022-09-09T14:25:50;97753.44;;;24.02;45.42
19108;BME280;9686;48.832;9.126;2022-09-09T14:28:16;97743.66;;;24.03;46.33
19108;BME280;9686;48.832;9.126;2022-09-09T14:30:43;97744.59;;;24.02;45.65
19108;BME280;9686;48.832;9.126;2022-09-09T14:33:11;97749.69;;;23.92;44.86
19108;BME280;9686;48.832;9.126;2022-09-09T14:35:36;97753.94;;;23.82;44.34
19108;BME280;9686;48.832;9.126;2022-09-09T14:38:03;97753.06;;;23.54;44.94
19108;BME280;9686;48.832;9.126;2022-09-09T14:40:29;97746.19;;;23.64;45.88
19108;BME280;9686;48.832;9.126;2022-09-09T14:42:54;97746.25;;;23.77;45.04
19108;BME280;9686;48.832;9.126;2022-09-09T14:45:22;97742.25;;;23.97;45.75
19108;BME280;9686;48.832;9.126;2022-09-09T14:47:49;97756.47;;;24.23;45.06
19108;BME280;9686;48.832;9.126;2022-09-09T14:50:14;97750.84;;;24.40;43.81
19108;BME280;9686;48.832;9.126;2022-09-09T14:52:40;97748.38;;;24.24;44.07
19108;BME280;9686;48.832;9.126;2022-09-09T14:55:06;97755.41;;;24.25;43.70
19108;BME280;9686;48.832;9.126;2022-09-09T14:57:32;97746.25;;;24.29;44.67
19108;BME280;9686;48.832;9.126;2022-09-09T15:00:00;97755.84;;;24.32;43.98
19108;BME280;9686;48.832;9.126;2022-09-09T15:02:26;97757.31;;;24.23;43.81
19108;BME280;9686;48.832;9.126;2022-09-09T15:04:51;97760.03;;;23.96;45.51